Terminal Aerodrome Forecast
Issued by NWS

Home | Current Version | Previous Version | Text Only | Print | Product List | Glossary On
Versions: 1 2 3 4 5 6 7 8 9 10 11 12 13 14 15 16 17 18
000
FTUS46 KSEW 260536
TAFBFI
TAF
KBFI 260536Z 2606/2706 VRB03KT P6SM BKN050 OVC150
     FM261500 VRB03KT P6SM -RA OVC050
     FM261800 14005KT P6SM -RA FEW028 OVC040
     FM262100 14008KT 6SM -RA BR OVC030
     FM270300 16009KT P6SM VCSH BKN030 OVC045 PROB30 2703/2706
      -SHRA=

USA.gov is the U.S. government's official web portal to all federal, state and local government web resources and services.